sensor_id;sensor_type;location;lat;lon;timestamp;temperature;humidity
69893;DHT22;61212;42.688;22.176;2022-10-23T15:44:06;461.10;2380.80
69893;DHT22;61212;42.688;22.176;2022-10-23T15:46:33;461.00;2380.80
69893;DHT22;61212;42.688;22.176;2022-10-23T15:48:59;460.90;2380.80
69893;DHT22;61212;42.688;22.176;2022-10-23T15:51:25;460.80;2380.80
69893;DHT22;61212;42.688;22.176;2022-10-23T15:56:17;436.10;2355.20
69893;DHT22;61212;42.688;22.176;2022-10-23T15:58:43;435.80;2355.20
69893;DHT22;61212;42.688;22.176;2022-10-23T19:31:46;333.00;2329.60
69893;DHT22;61212;42.688;22.176;2022-10-23T19:34:17;308.10;2304.00
69893;DHT22;61212;42.688;22.176;2022-10-23T19:36:48;308.00;2304.00
69893;DHT22;61212;42.688;22.176;2022-10-23T19:39:14;308.10;2304.00
69893;DHT22;61212;42.688;22.176;2022-10-23T19:41:40;308.00;2304.00
69893;DHT22;61212;42.688;22.176;2022-10-23T19:44:06;308.00;2304.00
69893;DHT22;61212;42.688;22.176;2022-10-23T19:46:34;308.00;2304.00
69893;DHT22;61212;42.688;22.176;2022-10-23T19:49:01;308.00;2304.00
69893;DHT22;61212;42.688;22.176;2022-10-23T19:51:27;308.00;2304.00
69893;DHT22;61212;42.688;22.176;2022-10-23T19:53:55;308.00;2304.00
69893;DHT22;61212;42.688;22.176;2022-10-23T19:56:21;308.00;2304.00
69893;DHT22;61212;42.688;22.176;2022-10-23T19:58:48;307.70;2304.00
69893;DHT22;61212;42.688;22.176;2022-10-23T20:01:16;307.70;2304.00
69893;DHT22;61212;42.688;22.176;2022-10-23T20:03:43;307.70;2304.00
69893;DHT22;61212;42.688;22.176;2022-10-23T20:06:18;307.70;2304.00
69893;DHT22;61212;42.688;22.176;2022-10-23T20:08:45;307.70;2304.00
69893;DHT22;61212;42.688;22.176;2022-10-23T20:11:19;307.70;2304.00
69893;DHT22;61212;42.688;22.176;2022-10-23T20:13:46;307.70;2304.00
69893;DHT22;61212;42.688;22.176;2022-10-23T20:18:48;307.70;2304.00
69893;DHT22;61212;42.688;22.176;2022-10-23T20:21:14;307.60;2304.00
69893;DHT22;61212;42.688;22.176;2022-10-23T20:23:41;307.60;2304.00
69893;DHT22;61212;42.688;22.176;2022-10-23T20:26:09;307.60;2304.00
69893;DHT22;61212;42.688;22.176;2022-10-23T20:28:36;307.60;2304.00
69893;DHT22;61212;42.688;22.176;2022-10-23T20:31:06;307.50;2304.00
69893;DHT22;61212;42.688;22.176;2022-10-23T20:33:36;307.50;2304.00
69893;DHT22;61212;42.688;22.176;2022-10-23T21:12:44;307.60;2304.00
69893;DHT22;61212;42.688;22.176;2022-10-23T21:20:05;307.50;2304.00
69893;DHT22;61212;42.688;22.176;2022-10-23T21:22:31;307.30;2304.00
69893;DHT22;61212;42.688;22.176;2022-10-23T21:56:58;282.30;2278.40
69893;DHT22;61212;42.688;22.176;2022-10-23T21:59:25;282.10;2278.40
69893;DHT22;61212;42.688;22.176;2022-10-23T22:01:51;282.30;2278.40
69893;DHT22;61212;42.688;22.176;2022-10-23T22:04:18;282.10;2278.40
69893;DHT22;61212;42.688;22.176;2022-10-23T22:06:46;282.20;2278.40
69893;DHT22;61212;42.688;22.176;2022-10-23T22:09:15;282.10;2278.40
69893;DHT22;61212;42.688;22.176;2022-10-23T22:21:27;282.40;2278.40
69893;DHT22;61212;42.688;22.176;2022-10-23T22:28:51;282.40;2278.40
69893;DHT22;61212;42.688;22.176;2022-10-23T22:31:19;282.10;2278.40
